createdAt,value
2022-08-28T00:00:11.255Z,15.04
2022-08-28T00:02:38.031Z,15.21
2022-08-28T00:05:06.096Z,15.08
2022-08-28T00:07:34.649Z,15.40
2022-08-28T00:10:01.224Z,14.88
2022-08-28T00:12:27.733Z,15.12
2022-08-28T00:14:54.226Z,15.24
2022-08-28T00:17:20.758Z,14.97
2022-08-28T00:19:47.461Z,15.03
2022-08-28T00:22:14.070Z,15.05
2022-08-28T00:24:44.534Z,15.74
2022-08-28T00:27:29.655Z,15.24
2022-08-28T00:29:56.192Z,15.21
2022-08-28T00:32:25.843Z,15.07
2022-08-28T00:34:52.424Z,15.34
2022-08-28T00:37:19.032Z,15.16
2022-08-28T00:39:48.928Z,15.21
2022-08-28T00:42:15.364Z,14.88
2022-08-28T00:44:41.859Z,14.78
2022-08-28T00:47:08.632Z,14.87
2022-08-28T00:49:38.164Z,14.87
2022-08-28T00:52:11.944Z,14.91
2022-08-28T00:54:56.886Z,14.54
2022-08-28T00:57:31.604Z,15.00
2022-08-28T00:59:58.257Z,14.41
2022-08-28T01:02:29.297Z,14.75
2022-08-28T01:04:58.159Z,14.51
2022-08-28T01:07:24.768Z,14.32
2022-08-28T01:09:54.081Z,14.77
2022-08-28T01:12:23.342Z,14.46
2022-08-28T01:14:51.044Z,15.00
2022-08-28T01:17:30.729Z,14.27
2022-08-28T01:20:02.892Z,14.16
2022-08-28T01:22:38.998Z,14.31
2022-08-28T01:25:13.238Z,14.07
2022-08-28T01:27:45.473Z,14.33
2022-08-28T01:30:24.543Z,14.06
2022-08-28T01:32:57.845Z,13.98
2022-08-28T01:35:29.967Z,14.40
2022-08-28T01:38:04.682Z,13.96
2022-08-28T01:40:38.026Z,13.89
2022-08-28T01:43:14.596Z,13.83
2022-08-28T01:45:48.547Z,13.85
2022-08-28T01:48:18.864Z,13.82
2022-08-28T01:50:45.691Z,13.61
2022-08-28T01:53:15.210Z,13.90
2022-08-28T01:55:45.483Z,13.56
2022-08-28T01:58:12.780Z,13.78
2022-08-28T02:00:43.137Z,13.50
2022-08-28T02:03:17.999Z,13.55
2022-08-28T02:05:46.801Z,13.63
2022-08-28T02:08:19.887Z,13.97
2022-08-28T02:10:47.133Z,13.70
2022-08-28T02:13:16.644Z,13.33
2022-08-28T02:15:44.220Z,13.40
2022-08-28T02:18:14.552Z,13.85
2022-08-28T02:20:42.930Z,13.51
2022-08-28T02:23:12.461Z,13.99
2022-08-28T02:25:39.532Z,13.57
2022-08-28T02:28:12.798Z,13.34
2022-08-28T02:30:42.022Z,13.27
2022-08-28T02:33:08.693Z,13.68
2022-08-28T02:35:38.016Z,13.20
2022-08-28T02:38:07.037Z,13.25
2022-08-28T02:40:37.067Z,13.33
2022-08-28T02:43:16.244Z,13.13
2022-08-28T02:45:45.729Z,13.51
2022-08-28T02:48:17.640Z,13.35
2022-08-28T02:50:46.188Z,13.41
2022-08-28T02:53:16.903Z,13.25
2022-08-28T02:55:44.828Z,13.50
2022-08-28T02:58:11.487Z,13.15
2022-08-28T03:00:38.102Z,13.46
2022-08-28T03:03:05.281Z,13.60
2022-08-28T03:05:31.769Z,13.10
2022-08-28T03:07:59.492Z,13.08
2022-08-28T03:10:28.483Z,13.10
2022-08-28T03:12:55.011Z,13.17
2022-08-28T03:15:21.763Z,12.96
2022-08-28T03:17:50.844Z,13.08
2022-08-28T03:20:27.342Z,12.89
2022-08-28T03:23:12.267Z,12.94
2022-08-28T03:25:40.966Z,13.01
2022-08-28T03:28:07.422Z,13.26
2022-08-28T03:30:35.980Z,13.41
2022-08-28T03:33:09.865Z,13.19
2022-08-28T03:35:37.574Z,13.45
2022-08-28T03:38:05.034Z,13.00
2022-08-28T03:40:33.832Z,12.95
2022-08-28T03:43:12.630Z,13.00
2022-08-28T03:45:43.107Z,13.46
2022-08-28T03:48:14.214Z,13.07
2022-08-28T03:50:45.386Z,13.28
2022-08-28T03:53:15.564Z,13.04
2022-08-28T03:55:48.980Z,12.72
2022-08-28T03:58:19.919Z,13.18
2022-08-28T04:00:46.360Z,13.42
2022-08-28T04:03:21.021Z,13.29
2022-08-28T04:05:50.187Z,13.03
2022-08-28T04:08:33.322Z,13.54
2022-08-28T04:11:00.954Z,12.63
2022-08-28T04:13:45.488Z,12.79
2022-08-28T04:16:26.265Z,13.42
2022-08-28T04:19:07.964Z,12.75
2022-08-28T04:21:38.088Z,12.92
2022-08-28T04:24:17.775Z,12.77
2022-08-28T04:26:46.414Z,13.24
2022-08-28T04:29:18.002Z,13.17
2022-08-28T04:31:49.355Z,12.89
2022-08-28T04:34:18.866Z,12.67
2022-08-28T04:37:04.517Z,12.82
2022-08-28T04:39:59.530Z,13.27
2022-08-28T04:42:44.828Z,12.86
2022-08-28T04:45:26.035Z,12.61
2022-08-28T04:48:05.379Z,12.76
2022-08-28T04:50:43.565Z,12.93
2022-08-28T04:53:43.820Z,12.54
2022-08-28T04:56:17.588Z,13.10
2022-08-28T05:01:47.660Z,12.80
2022-08-28T05:04:33.766Z,12.58
2022-08-28T05:07:21.101Z,12.85
2022-08-28T05:10:00.654Z,12.55
2022-08-28T05:12:49.076Z,13.03
2022-08-28T05:15:21.604Z,13.22
2022-08-28T05:18:07.764Z,12.67
2022-08-28T05:20:55.435Z,12.89
2022-08-28T05:23:54.796Z,12.75
2022-08-28T05:26:40.431Z,13.11
2022-08-28T05:29:35.934Z,13.14
2022-08-28T05:32:14.246Z,13.38
2022-08-28T05:34:46.747Z,13.27
2022-08-28T05:37:33.032Z,12.96
2022-08-28T05:40:05.948Z,13.59
2022-08-28T05:42:51.470Z,13.89
2022-08-28T05:45:32.640Z,13.32
2022-08-28T05:48:26.943Z,13.53
2022-08-28T05:51:40.554Z,14.03
2022-08-28T05:54:17.572Z,14.21
2022-08-28T05:56:51.614Z,14.27
2022-08-28T05:59:44.687Z,13.82
2022-08-28T06:02:54.762Z,13.99
2022-08-28T06:08:58.131Z,14.16
2022-08-28T06:11:24.601Z,14.43
2022-08-28T06:13:53.831Z,14.64
2022-08-28T06:17:23.445Z,15.33
2022-08-28T06:20:01.278Z,14.99
2022-08-28T06:22:51.705Z,14.91
2022-08-28T06:25:48.834Z,15.48
2022-08-28T06:28:43.922Z,15.80
2022-08-28T06:34:55.490Z,15.12
2022-08-28T06:38:28.808Z,15.04
2022-08-28T06:41:03.488Z,15.09
2022-08-28T06:43:36.297Z,15.39
2022-08-28T06:46:17.809Z,15.23
2022-08-28T06:48:57.004Z,15.47
2022-08-28T06:52:03.170Z,15.86
2022-08-28T06:54:34.256Z,15.42
2022-08-28T07:04:00.508Z,15.90
2022-08-28T07:06:53.858Z,16.42
2022-08-28T07:10:04.001Z,16.01
2022-08-28T07:16:21.612Z,16.92
2022-08-28T07:19:14.018Z,16.77
2022-08-28T07:22:13.105Z,17.40
2022-08-28T07:24:56.029Z,16.90
2022-08-28T07:27:54.837Z,17.18
2022-08-28T07:31:01.642Z,17.02
2022-08-28T07:36:58.602Z,17.77
2022-08-28T07:39:45.881Z,17.74
2022-08-28T07:42:40.318Z,17.82
2022-08-28T07:45:07.077Z,18.68
2022-08-28T07:47:33.576Z,18.78
2022-08-28T07:50:01.420Z,18.92
2022-08-28T07:52:28.155Z,18.88
2022-08-28T07:54:55.349Z,18.66
2022-08-28T07:57:22.906Z,18.41
2022-08-28T07:59:50.022Z,18.74
2022-08-28T08:02:16.584Z,18.74
2022-08-28T08:04:42.972Z,18.69
2022-08-28T08:07:09.606Z,18.59
2022-08-28T08:09:38.101Z,18.55
2022-08-28T08:12:05.618Z,18.49
2022-08-28T08:14:32.263Z,18.42
2022-08-28T08:17:02.159Z,18.61
2022-08-28T08:19:28.583Z,18.79
2022-08-28T08:21:55.788Z,19.20
2022-08-28T08:24:25.836Z,19.00
2022-08-28T08:26:59.501Z,19.21
2022-08-28T08:29:28.451Z,19.21
2022-08-28T08:32:02.659Z,19.79
2022-08-28T08:34:29.089Z,19.62
2022-08-28T08:36:55.589Z,20.00
2022-08-28T08:39:22.051Z,20.22
2022-08-28T08:41:59.838Z,20.41
2022-08-28T08:44:36.181Z,20.88
2022-08-28T08:47:35.048Z,20.76
2022-08-28T08:50:17.873Z,20.90
2022-08-28T08:52:58.105Z,21.26
2022-08-28T08:55:50.268Z,21.35
2022-08-28T08:58:47.684Z,21.75
2022-08-28T09:01:52.024Z,21.53
2022-08-28T09:05:33.585Z,21.97
2022-08-28T09:12:06.813Z,21.70
2022-08-28T09:15:34.064Z,22.87
2022-08-28T09:20:02.541Z,22.91
2022-08-28T09:22:22.925Z,22.30
2022-08-28T09:25:15.500Z,21.58
2022-08-28T09:28:15.209Z,22.18
2022-08-28T09:37:33.331Z,21.70
2022-08-28T09:44:02.323Z,22.37
2022-08-28T09:56:31.166Z,23.23
2022-08-28T10:01:48.951Z,23.40
2022-08-28T10:07:54.904Z,22.89
2022-08-28T10:11:29.557Z,23.42
2022-08-28T10:14:38.314Z,23.28
2022-08-28T10:17:52.678Z,23.03
2022-08-28T10:24:54.616Z,23.45
2022-08-28T10:29:36.386Z,23.35
2022-08-28T10:38:26.129Z,22.93
2022-08-28T10:42:19.293Z,23.61
2022-08-28T10:45:46.246Z,23.67
2022-08-28T10:49:24.701Z,22.22
2022-08-28T10:56:16.928Z,22.64
2022-08-28T11:03:35.662Z,21.88
2022-08-28T11:10:05.454Z,22.67
2022-08-28T11:13:48.220Z,22.49
2022-08-28T11:20:49.455Z,23.15
2022-08-28T11:25:56.712Z,22.38
2022-08-28T12:11:41.837Z,22.96
2022-08-28T13:45:20.667Z,29.97
2022-08-28T13:48:39.481Z,29.88
2022-08-28T13:52:15.490Z,29.66
2022-08-28T13:55:21.306Z,30.10
2022-08-28T13:58:15.243Z,30.09
2022-08-28T14:02:02.436Z,27.98
2022-08-28T14:08:45.643Z,28.63
2022-08-28T14:11:44.049Z,29.57
2022-08-28T14:14:40.195Z,30.15
2022-08-28T14:21:16.641Z,30.42
2022-08-28T14:27:30.933Z,30.22
2022-08-28T14:33:49.431Z,30.22
2022-08-28T14:40:14.373Z,30.59
2022-08-28T14:42:59.638Z,30.06
2022-08-28T14:56:45.123Z,30.54
2022-08-28T14:59:43.988Z,30.05
2022-08-28T15:23:22.005Z,31.75
2022-08-28T15:25:48.176Z,29.89
2022-08-28T15:40:34.629Z,29.50
2022-08-28T16:06:43.662Z,31.06
2022-08-28T16:33:14.171Z,30.40
2022-08-28T16:40:20.513Z,30.43
2022-08-28T17:36:42.554Z,22.42
2022-08-28T17:48:06.934Z,22.37
2022-08-28T17:53:35.267Z,21.94
2022-08-28T18:00:52.465Z,21.34
2022-08-28T18:05:14.137Z,21.80
2022-08-28T18:12:01.240Z,21.40
2022-08-28T18:19:20.043Z,20.30
2022-08-28T18:22:50.896Z,20.78
2022-08-28T18:30:37.930Z,20.91
2022-08-28T18:41:45.655Z,19.91
2022-08-28T18:43:48.751Z,20.11
2022-08-28T18:47:31.403Z,20.57
2022-08-28T18:50:18.038Z,20.00
2022-08-28T18:53:10.360Z,19.82
2022-08-28T18:55:39.653Z,19.67
2022-08-28T18:58:16.916Z,19.49
2022-08-28T19:01:03.428Z,19.51
2022-08-28T19:03:30.606Z,19.28
2022-08-28T19:06:22.647Z,19.32
2022-08-28T19:08:59.581Z,19.11
2022-08-28T19:18:40.329Z,18.92
2022-08-28T19:21:37.665Z,19.23
2022-08-28T19:37:24.769Z,18.61
2022-08-28T19:40:48.872Z,18.33
2022-08-28T19:43:53.802Z,19.07
2022-08-28T19:50:08.155Z,18.30
2022-08-28T19:53:29.670Z,18.21
2022-08-28T19:56:02.973Z,19.02
2022-08-28T19:59:18.657Z,18.72
2022-08-28T20:02:43.191Z,18.55
2022-08-28T20:23:56.962Z,18.13
2022-08-28T20:36:28.382Z,18.27
2022-08-28T20:39:21.143Z,18.44
2022-08-28T20:45:34.082Z,18.53
2022-08-28T20:52:23.828Z,17.97
2022-08-28T20:55:33.987Z,18.57
2022-08-28T20:59:11.275Z,18.23
2022-08-28T21:01:59.872Z,18.78
2022-08-28T21:05:57.890Z,17.88
2022-08-28T21:11:57.641Z,17.84
2022-08-28T21:24:23.786Z,18.10
2022-08-28T21:27:12.864Z,17.92
2022-08-28T21:29:41.630Z,17.61
2022-08-28T21:32:33.832Z,17.20
2022-08-28T21:35:16.990Z,17.96
2022-08-28T21:37:46.694Z,17.35
2022-08-28T21:40:35.278Z,17.98
2022-08-28T21:43:07.033Z,17.48
2022-08-28T21:45:45.469Z,17.26
2022-08-28T21:48:17.660Z,17.41
2022-08-28T21:50:54.257Z,17.33
2022-08-28T21:53:27.220Z,17.58
2022-08-28T21:56:04.882Z,16.95
2022-08-28T21:58:36.062Z,16.92
2022-08-28T22:01:35.221Z,16.93
2022-08-28T22:04:26.749Z,16.93
2022-08-28T22:06:57.211Z,16.73
2022-08-28T22:09:31.403Z,17.07
2022-08-28T22:15:48.630Z,16.77
2022-08-28T22:18:33.986Z,16.92
2022-08-28T22:21:30.016Z,16.68
2022-08-28T22:24:15.590Z,16.65
2022-08-28T22:26:57.456Z,16.66
2022-08-28T22:29:42.027Z,16.63
2022-08-28T22:32:13.731Z,16.49
2022-08-28T22:34:49.379Z,16.42
2022-08-28T22:37:32.850Z,16.42
2022-08-28T22:40:17.059Z,16.25
2022-08-28T22:42:43.978Z,16.20
2022-08-28T22:45:21.469Z,16.36
2022-08-28T22:47:55.018Z,16.51
2022-08-28T22:50:38.371Z,15.85
2022-08-28T22:53:20.802Z,16.22
2022-08-28T22:55:57.721Z,15.98
2022-08-28T22:58:33.004Z,15.72
2022-08-28T23:01:08.252Z,15.89
2022-08-28T23:04:03.313Z,15.93
2022-08-28T23:06:34.950Z,15.88
2022-08-28T23:09:06.415Z,16.30
2022-08-28T23:11:42.186Z,15.98
2022-08-28T23:14:11.026Z,16.27
2022-08-28T23:16:52.484Z,15.99
2022-08-28T23:19:28.576Z,15.67
2022-08-28T23:21:59.870Z,15.89
2022-08-28T23:24:38.117Z,15.69
2022-08-28T23:27:35.483Z,15.64
2022-08-28T23:30:06.848Z,15.54
2022-08-28T23:32:41.300Z,15.82
2022-08-28T23:35:30.462Z,15.29
2022-08-28T23:37:59.609Z,15.32
2022-08-28T23:40:28.774Z,15.01
2022-08-28T23:42:59.256Z,15.08
2022-08-28T23:45:30.656Z,15.04
2022-08-28T23:48:11.074Z,15.04
2022-08-28T23:50:42.308Z,14.84
2022-08-28T23:53:12.121Z,14.78
2022-08-28T23:55:50.871Z,14.76
2022-08-28T23:58:20.629Z,14.84
